San Jose Del Cabo, Mexico

12:20 PM MDT on August 23, 2014 (GMT -0600)
Los Cabos International | Change Station
CLOSE
Current Station
Airport
Location: San Jose del Cabo,
Elevation: 358 ft
Nearby Weather Stations

Elev 358 ft 23.15 °N, 109.72 °W | Updated 32 minutes ago

Mostly Cloudy
Mostly Cloudy
93 °F
Feels Like 96 °F
N
12
Wind Variable Wind from WNW

Today
High -- | Low -- °F
--% Chance of Precip.
Yesterday
High -- | Low -- °F
Precip. -- in
6:58 AM 7:44 PM
Waning Crescent, 3% visible
Pressure 29.84 in
Visibility 15.0 miles
Clouds Mostly Cloudy 4000 ft
Heat Index 96 °F
Dew Point 66 °F
Humidity 41%
Rainfall 0.00 in
Snow Depth Not available.
UV 6 out of 12
Pollen Not available.
Air Quality Not available.
Flu Activity Not available.
METAR MMSD 231748Z 30010KT 15SM BKN040 34/19 A2988 RMK SLP104 52001 909 8/100 CI

More Conditions Fewer Conditions

Pressure 29.84 in
Visibility 15.0 miles
Clouds Mostly Cloudy 4000 ft
Heat Index 96 °F
Dew Point 66 °F
Humidity 41%
Rainfall 0.00 in
Snow Depth Not available.
UV 6 out of 12
Pollen Not available.
Air Quality Not available.
Flu Activity Not available.
METAR MMSD 231748Z 30010KT 15SM BKN040 34/19 A2988 RMK SLP104 52001 909 8/100 CI

More Conditions Fewer Conditions

10-Day Weather Forecast

Almanac

Astronomy

Aug. 23, 2014 Rise Set
Actual Time 6:58 AM MDT 7:44 PM MDT
Civil Twilight 6:34 AM MDT 8:07 PM MDT
Nautical Twilight 6:07 AM MDT 8:34 PM MDT
Astronomical Twilight 5:39 AM MDT 9:02 PM MDT
Moon 5:21 AM MDT 6:29 PM MDT
Length of Visible Light 13h 32m
Length of Day
12h 46m
Tomorrow will be 1m 14s shorter.
Waning Crescent, 3% of the Moon is Illuminated
Today
Waning Crescent
Aug 25
New
Sep 2
First Quarter
Sep 8
Full
Sep 15
Last Quarter

Today's Extremes

Country Highs Country Lows

Community

WunderPhotos

Upload Photos

1,746,554 photos uploaded!

WunderBlogs® & News

By Dr. Jeff Masters
Director of Meteorology, Weather Underground
By Kari Strenfel
Meteorologist, Weather Underground
By Christopher C. Burt
Weather Historian, Weather Underground
August 23, 2014
August 23, 2014
August 23, 2014

Nearby

Snow Depth

Not available.

Earthquake Activity

City Distance Mag. Time & Date
No recent earthquake activity has been reported nearby.
Minimum magnitude displayed is 2.5.

Coastal Water Temperatures

Place Temperature
No Stations Reporting

Nearby Weather Stations